Data for 12/15/2005

Time Sea-Level Adjusted Pressure Absolute Pressure Temperature Relative Humidity Dew Point   
(mb) (inHg) (mb) (inHg) (C) (F) (%) (C) (F)
00:05 1024 30.24 854 25.22 -11.2 11.9 72 -15.2 4.6
00:10 1024 30.24 853 25.19 -11.3 11.7 73 -15.1 4.8
00:15 1024 30.24 853 25.19 -11.3 11.6 74 -15.2 4.7
00:20 1024 30.24 853 25.19 -11.5 11.3 75 -15.1 4.9
00:25 1024 30.24 853 25.19 -11.1 11.9 73 -15 5
00:30 1024 30.24 853 25.19 -11 12.1 73 -15 5
00:35 1024 30.24 853 25.19 -11.1 12 73 -15 5
00:40 1024 30.24 853 25.19 -11.1 12.1 73 -15 5
00:45 1024 30.24 853 25.19 -11 12.1 75 -14.7 5.5
00:50 1024 30.24 853 25.19 -11 12.1 75 -14.7 5.5
00:55 1024 30.24 853 25.19 -11.1 12.1 73 -15 5
01:00 1024 30.24 853 25.19 -11.1 12 73 -15 5
01:05 1024 30.24 853 25.19 -11 12.1 73 -14.9 5.1
01:10 1024 30.24 853 25.19 -10.9 12.4 73 -14.9 5.2
01:15 1024 30.24 853 25.19 -10.9 12.4 73 -14.9 5.2
01:20 1024 30.24 853 25.19 -10.9 12.5 74 -14.7 5.6
01:25 1024 30.24 853 25.19 -11 12.2 73 -14.9 5.3
01:30 1024 30.24 853 25.19 -11.1 12 74 -15 5.1
01:35 1024 30.24 853 25.19 -11.1 12 74 -14.9 5.2
01:40 1024 30.24 853 25.19 -11.1 12.1 74 -14.8 5.3
01:45 1024 30.24 853 25.19 -11 12.1 73 -14.9 5.2
01:50 1024 30.24 853 25.19 -11.1 12 74 -14.9 5.1
01:55 1024 30.24 853 25.19 -11.2 11.9 74 -14.9 5.2
02:00 1024 30.24 853 25.19 -11.1 12.1 74 -14.8 5.3
02:05 1024 30.24 853 25.19 -11 12.2 73 -14.9 5.3
02:10 1024 30.24 853 25.19 -11 12.2 74 -14.8 5.3
02:15 1024 30.24 853 25.19 -11.3 11.7 75 -15 5
02:20 1024 30.24 853 25.19 -11.4 11.4 75 -15 5
02:25 1024 30.24 853 25.19 -11.5 11.3 75 -15.1 4.9
02:30 1024 30.24 853 25.19 -11.2 11.8 75 -14.8 5.4
02:35 1024 30.24 853 25.19 -11.4 11.5 76 -14.9 5.2
02:40 1024 30.24 853 25.19 -11.1 12 74 -14.9 5.2
02:45 1024 30.24 853 25.19 -11 12.3 74 -14.8 5.4
02:50 1024 30.24 853 25.19 -10.9 12.4 74 -14.7 5.6
02:55 1024 30.24 853 25.19 -10.9 12.4 73 -14.8 5.3
03:00 1024 30.24 853 25.19 -10.9 12.4 73 -14.8 5.3
03:05 1024 30.24 853 25.19 -10.9 12.4 73 -14.8 5.4
03:10 1024 30.24 853 25.19 -10.6 13 72 -14.7 5.6
03:15 1024 30.24 853 25.19 -10.5 13 72 -14.6 5.7
03:20 1024 30.24 853 25.19 -10.8 12.5 73 -14.7 5.5
03:25 1024 30.24 853 25.19 -10.8 12.6 73 -14.7 5.5
03:30 1023 30.21 853 25.19 -10.6 13 72 -14.6 5.7
03:35 1023 30.21 853 25.19 -10.7 12.8 73 -14.7 5.6
03:40 1023 30.21 853 25.19 -10.8 12.6 73 -14.8 5.4
03:45 1023 30.21 853 25.19 -11 12.3 74 -14.8 5.4
03:50 1023 30.21 852 25.16 -11.1 12 74 -14.8 5.3
03:55 1023 30.21 852 25.16 -11.5 11.2 76 -15 5.1
04:00 1023 30.21 852 25.16 -11.7 11 77 -15 5
04:05 1023 30.21 852 25.16 -11.7 11 77 -14.9 5.1
04:10 1023 30.21 852 25.16 -11.8 10.8 78 -14.9 5.1
04:15 1023 30.21 852 25.16 -11.7 10.9 77 -15 5.1
04:20 1023 30.21 852 25.16 -11.7 11 77 -14.9 5.2
04:25 1023 30.21 852 25.16 -11.7 11 77 -14.9 5.2
04:30 1023 30.21 852 25.16 -11.7 10.9 77 -15 5
04:35 1023 30.21 852 25.16 -11.9 10.6 78 -15 4.9
04:40 1023 30.21 852 25.16 -12.1 10.3 78 -15.1 4.8
04:45 1023 30.21 852 25.16 -12.2 10.1 79 -15.2 4.7
04:50 1023 30.21 852 25.16 -12.3 9.9 78 -15.4 4.3
04:55 1023 30.21 852 25.16 -12.5 9.5 80 -15.4 4.3
05:00 1023 30.21 852 25.16 -12.4 9.7 80 -15.2 4.6
05:05 1023 30.21 852 25.16 -12 10.3 79 -15 4.9
05:10 1023 30.21 852 25.16 -11.9 10.6 78 -15 5
05:15 1023 30.21 852 25.16 -12.3 10 78 -15.3 4.5
05:20 1023 30.21 852 25.16 -12.3 9.8 79 -15.3 4.5
05:25 1023 30.21 852 25.16 -12 10.4 78 -15.1 4.8
05:30 1023 30.21 852 25.16 -11.7 10.9 76 -15.1 4.8
05:35 1023 30.21 852 25.16 -11.8 10.7 77 -15.1 4.8
05:40 1022 30.18 852 25.16 -12.1 10.3 78 -15.1 4.8
05:45 1022 30.18 852 25.16 -12.5 9.5 80 -15.3 4.4
05:50 1022 30.18 852 25.16 -12.2 10 79 -15.2 4.6
05:55 1022 30.18 852 25.16 -12 10.5 78 -15 4.9
06:00 1023 30.21 852 25.16 -11.9 10.6 78 -15.1 4.9
06:05 1023 30.21 852 25.16 -11.9 10.5 77 -15.2 4.6
06:10 1023 30.21 852 25.16 -12.1 10.2 78 -15.2 4.6
06:15 1023 30.21 852 25.16 -11.9 10.7 77 -15.1 4.8
06:20 1022 30.18 852 25.16 -11.6 11.2 76 -14.9 5.1
06:25 1022 30.18 851 25.13 -11.5 11.3 76 -14.9 5.2
06:30 1022 30.18 852 25.16 -11.6 11.2 76 -15 5.1
06:35 1022 30.18 851 25.13 -11.6 11.1 77 -14.9 5.1
06:40 1022 30.18 851 25.13 -11.8 10.9 77 -15 5
06:45 1022 30.18 851 25.13 -11.7 10.9 77 -15 5
06:50 1022 30.18 851 25.13 -11.7 11 76 -15.1 4.7
06:55 1022 30.18 851 25.13 -12 10.3 75 -15.5 4
07:00 1022 30.18 851 25.13 -12.4 9.8 78 -15.4 4.3
07:05 1022 30.18 851 25.13 -12.2 10.1 76 -15.6 4
07:10 1022 30.18 851 25.13 -12.3 10 78 -15.4 4.3
07:15 1022 30.18 851 25.13 -12 10.4 77 -15.3 4.4
07:20 1022 30.18 851 25.13 -11.9 10.5 76 -15.3 4.5
07:25 1022 30.18 851 25.13 -12 10.4 77 -15.2 4.6
07:30 1022 30.18 851 25.13 -12 10.4 77 -15.2 4.6
07:35 1022 30.18 851 25.13 -12 10.5 77 -15.2 4.6
07:40 1022 30.18 851 25.13 -12.1 10.3 78 -15.2 4.6
07:45 1022 30.18 851 25.13 -12.3 10 79 -15.1 4.8
07:50 1022 30.18 851 25.13 -12 10.5 79 -15 5
07:55 1022 30.18 851 25.13 -11.7 10.9 75 -15.3 4.5
08:00 1022 30.18 851 25.13 -12.2 10.1 77 -15.4 4.3
08:05 1022 30.18 851 25.13 -12.2 10.1 75 -15.7 3.7
08:10 1022 30.18 851 25.13 -12.5 9.5 77 -15.8 3.5
08:15 1022 30.18 851 25.13 -12.7 9.2 77 -16 3.3
08:20 1022 30.18 851 25.13 -12.7 9.2 76 -16.1 3.1
08:25 1022 30.18 851 25.13 -13.2 8.2 78 -16.2 2.8
08:30 1022 30.18 851 25.13 -13.6 7.5 81 -16.2 2.9
08:35 1022 30.18 851 25.13 -13.3 8.2 81 -15.8 3.5
08:40 1022 30.18 851 25.13 -12.8 8.9 80 -15.7 3.8
08:45 1022 30.18 851 25.13 -12.4 9.6 78 -15.6 4
08:50 1022 30.18 851 25.13 -12.5 9.5 78 -15.6 4
08:55 1022 30.18 851 25.13 -12.7 9.2 77 -15.9 3.3
09:00 1022 30.18 851 25.13 -12.8 8.9 78 -15.9 3.4
09:05 1022 30.18 851 25.13 -12.8 8.9 79 -15.8 3.6
09:10 1022 30.18 851 25.13 -12.4 9.7 77 -15.6 3.9
09:15 1022 30.18 851 25.13 -12.3 9.8 77 -15.5 4.1
09:20 1022 30.18 851 25.13 -11.6 11.2 74 -15.3 4.5
09:25 1022 30.18 851 25.13 -11.3 11.6 74 -15.2 4.7
09:30 1022 30.18 851 25.13 -11.1 12 72 -15.2 4.7
09:35 1022 30.18 851 25.13 -10.8 12.6 70 -15.3 4.4
09:40 1022 30.18 851 25.13 -10.9 12.5 71 -15.1 4.8
09:45 1022 30.18 851 25.13 -11.1 12.1 71 -15.4 4.3
09:50 1022 30.18 851 25.13 -10.9 12.3 70 -15.4 4.3
09:55 1022 30.18 851 25.13 -10.3 13.4 67 -15.3 4.5
10:00 1022 30.18 851 25.13 -9.3 15.3 63 -15 4.9
10:05 1022 30.18 851 25.13 -9.1 15.6 64 -14.7 5.6
10:10 1022 30.18 852 25.16 -8.9 16 64 -14.6 5.8
10:15 1023 30.21 852 25.16 -8.7 16.4 63 -14.5 5.9
10:20 1022 30.18 852 25.16 -9.1 15.7 65 -14.5 5.8
10:25 1023 30.21 852 25.16 -9.8 14.4 66 -15 5
10:30 1022 30.18 852 25.16 -9.9 14.3 66 -15.1 4.9
10:35 1022 30.18 852 25.16 -9.7 14.5 66 -15 5.1
10:40 1022 30.18 851 25.13 -9.9 14.2 67 -14.8 5.3
10:45 1022 30.18 851 25.13 -9.6 14.6 66 -14.9 5.3
10:50 1022 30.18 851 25.13 -9.8 14.5 66 -15 5
10:55 1022 30.18 851 25.13 -9.7 14.6 66 -14.9 5.2
11:00 1022 30.18 851 25.13 -9.1 15.7 63 -14.9 5.2
11:05 1022 30.18 851 25.13 -8.1 17.4 60 -14.7 5.6
11:10 1022 30.18 851 25.13 -8 17.6 60 -14.5 5.9
11:15 1022 30.18 851 25.13 -7.2 19.1 55 -14.7 5.5
11:20 1022 30.18 851 25.13 -6.8 19.8 55 -14.5 6
11:25 1021 30.15 851 25.13 -5.8 21.5 53 -13.9 6.9
11:30 1021 30.15 851 25.13 -6 21.2 52 -14.3 6.2
11:35 1021 30.15 850 25.1 -6.7 19.9 52 -14.9 5.2
11:40 1021 30.15 850 25.1 -6.8 19.8 54 -14.7 5.6
11:45 1021 30.15 850 25.1 -6.5 20.4 53 -14.4 6
11:50 1021 30.15 850 25.1 -6.5 20.3 53 -14.6 5.8
11:55 1021 30.15 850 25.1 -6.7 20 55 -14.2 6.4
12:00 1021 30.15 850 25.1 -6.5 20.3 55 -14.2 6.5
12:05 1021 30.15 850 25.1 -6.6 20.1 55 -14.3 6.3
12:10 1021 30.15 850 25.1 -6.9 19.5 56 -14.4 6.1
12:15 1021 30.15 850 25.1 -7.4 18.8 56 -14.7 5.6
12:20 1020 30.12 850 25.1 -7.4 18.8 56 -14.6 5.7
12:25 1020 30.12 850 25.1 -7.5 18.5 59 -14.2 6.5
12:30 1020 30.12 850 25.1 -7.3 18.8 59 -14 6.7
12:35 1020 30.12 850 25.1 -6.9 19.6 59 -13.5 7.6
12:40 1020 30.12 850 25.1 -6.7 19.9 59 -13.4 7.9
12:45 1020 30.12 850 25.1 -6.7 20 58 -13.5 7.6
12:50 1020 30.12 850 25.1 -6.7 20 59 -13.4 7.9
12:55 1020 30.12 849 25.07 -6.9 19.5 60 -13.5 7.6
13:00 1020 30.12 849 25.07 -7 19.4 60 -13.6 7.5
13:05 1020 30.12 849 25.07 -7.7 18.2 62 -13.8 7.2
13:10 1020 30.12 849 25.07 -8.5 16.6 63 -14.4 6
13:15 1020 30.12 849 25.07 -8.9 16 64 -14.4 6
13:20 1020 30.12 849 25.07 -8.5 16.7 64 -14.1 6.6
13:25 1020 30.12 849 25.07 -7.8 17.9 63 -13.7 7.3
13:30 1020 30.12 849 25.07 -7.5 18.6 62 -13.6 7.5
13:35 1020 30.12 849 25.07 -7.3 18.9 62 -13.3 8.1
13:40 1020 30.12 849 25.07 -7 19.4 61 -13.4 7.9
13:45 1020 30.12 849 25.07 -6.8 19.8 62 -13 8.6
13:50 1020 30.12 849 25.07 -6.8 19.7 61 -13.1 8.4
13:55 1020 30.12 849 25.07 -7 19.4 62 -13.2 8.3
14:00 1020 30.12 849 25.07 -7.1 19.2 62 -13.3 8.1
14:05 1020 30.12 849 25.07 -7.2 19.1 61 -13.4 7.9
14:10 1020 30.12 849 25.07 -7.5 18.6 64 -13.2 8.2
14:15 1020 30.12 849 25.07 -7.6 18.4 64 -13.3 8.1
14:20 1020 30.12 849 25.07 -7.6 18.3 63 -13.4 7.8
14:25 1020 30.12 849 25.07 -7.7 18.1 65 -13.1 8.3
14:30 1020 30.12 849 25.07 -7.8 18 65 -13.3 8.1
14:35 1020 30.12 849 25.07 -7.8 17.9 64 -13.5 7.7
14:40 1020 30.12 849 25.07 -8.2 17.3 65 -13.6 7.5
14:45 1020 30.12 849 25.07 -8.4 17 67 -13.4 7.8
14:50 1020 30.12 849 25.07 -8.1 17.4 64 -13.7 7.3
14:55 1020 30.12 849 25.07 -8 17.6 63 -13.8 7.2
15:00 1020 30.12 849 25.07 -8 17.7 64 -13.7 7.4
15:05 1020 30.12 849 25.07 -8.1 17.4 64 -13.7 7.4
15:10 1020 30.12 849 25.07 -8.3 17.1 66 -13.6 7.6
15:15 1020 30.12 849 25.07 -8.8 16.1 70 -13.4 7.9
15:20 1020 30.12 849 25.07 -8.6 16.6 66 -13.8 7.2
15:25 1020 30.12 849 25.07 -8.7 16.3 67 -13.8 7.1
15:30 1020 30.12 849 25.07 -8.7 16.4 67 -13.7 7.3
15:35 1020 30.12 849 25.07 -8.6 16.5 66 -13.9 6.9
15:40 1020 30.12 849 25.07 -8.6 16.5 67 -13.6 7.4
15:45 1020 30.12 849 25.07 -8.9 16.1 70 -13.4 7.8
15:50 1020 30.12 849 25.07 -8.8 16.2 70 -13.3 8.1
15:55 1020 30.12 849 25.07 -8.8 16.3 70 -13.2 8.2
16:00 1020 30.12 849 25.07 -8.8 16.3 69 -13.5 7.8
16:05 1020 30.12 849 25.07 -8.9 15.9 71 -13.3 8.1
16:10 1020 30.12 849 25.07 -9.1 15.7 73 -13 8.5
16:15 1020 30.12 849 25.07 -9.1 15.6 76 -12.7 9.2
16:20 1020 30.12 849 25.07 -9.1 15.6 77 -12.5 9.5
16:25 1020 30.12 849 25.07 -9.2 15.5 79 -12.2 10
16:30 1020 30.12 849 25.07 -9.2 15.4 79 -12.2 10
16:35 1020 30.12 849 25.07 -9.3 15.2 80 -12.2 10
16:40 1019 30.09 849 25.07 -9.4 15.2 82 -11.9 10.6
16:45 1019 30.09 849 25.07 -9.4 15.1 83 -11.7 10.9
16:50 1019 30.09 849 25.07 -9.3 15.2 85 -11.5 11.4
16:55 1020 30.12 849 25.07 -9.1 15.7 84 -11.3 11.7
17:00 1020 30.12 849 25.07 -9.1 15.6 85 -11.2 11.8
17:05 1019 30.09 849 25.07 -9 15.8 85 -11 12.1
17:10 1019 30.09 849 25.07 -8.9 15.9 86 -10.8 12.5
17:15 1019 30.09 849 25.07 -9 15.8 87 -10.8 12.5
17:20 1019 30.09 849 25.07 -9.1 15.7 87 -10.8 12.5
17:25 1019 30.09 849 25.07 -9.2 15.4 88 -10.8 12.5
17:30 1019 30.09 849 25.07 -9.3 15.3 88 -10.9 12.4
17:35 1019 30.09 848 25.04 -9.3 15.2 89 -10.8 12.6
17:40 1019 30.09 848 25.04 -9.2 15.4 89 -10.7 12.7
17:45 1019 30.09 848 25.04 -9.2 15.4 88 -10.8 12.5
17:50 1019 30.09 848 25.04 -9.4 15.1 90 -10.8 12.6
17:55 1019 30.09 848 25.04 -9.5 14.8 90 -10.9 12.4
18:00 1019 30.09 848 25.04 -9.6 14.6 89 -11.1 12.1
18:05 1019 30.09 848 25.04 -9.8 14.4 90 -11.1 12
18:10 1019 30.09 848 25.04 -9.8 14.3 90 -11.1 12
18:15 1019 30.09 848 25.04 -9.9 14.2 91 -11.1 12
18:20 1019 30.09 848 25.04 -9.8 14.3 91 -11.1 12.1
18:25 1019 30.09 848 25.04 -9.8 14.3 91 -11 12.3
18:30 1019 30.09 848 25.04 -9.7 14.6 91 -10.9 12.4
18:35 1019 30.09 848 25.04 -9.6 14.7 91 -10.9 12.4
18:40 1019 30.09 848 25.04 -9.6 14.7 91 -10.8 12.5
18:45 1019 30.09 848 25.04 -9.5 15 91 -10.7 12.7
18:50 1018 30.06 848 25.04 -9.5 14.9 91 -10.7 12.7
18:55 1018 30.06 848 25.04 -9.4 15 91 -10.7 12.8
19:00 1018 30.06 848 25.04 -9.4 15 91 -10.6 12.8
19:05 1018 30.06 848 25.04 -9.4 15 91 -10.7 12.8
19:10 1018 30.06 848 25.04 -9.5 15 91 -10.6 12.9
19:15 1018 30.06 847 25.01 -9.4 15.2 91 -10.5 13
19:20 1018 30.06 847 25.01 -9.3 15.2 91 -10.5 13.1
19:25 1018 30.06 847 25.01 -9.3 15.2 91 -10.6 13
19:30 1018 30.06 847 25.01 -9.3 15.2 91 -10.5 13.1
19:35 1018 30.06 847 25.01 -9.3 15.4 91 -10.5 13.1
19:40 1018 30.06 848 25.04 -9.2 15.4 91 -10.4 13.2
19:45 1018 30.06 847 25.01 -9.3 15.2 92 -10.4 13.2
19:50 1018 30.06 847 25.01 -9.2 15.4 92 -10.3 13.4
19:55 1018 30.06 848 25.04 -9 15.8 91 -10.2 13.6
20:00 1018 30.06 847 25.01 -9.1 15.7 92 -10.1 13.8
20:05 1018 30.06 848 25.04 -8.9 16 91 -10.2 13.7
20:10 1018 30.06 848 25.04 -8.9 16 90 -10.2 13.7
20:15 1018 30.06 847 25.01 -8.9 15.9 90 -10.3 13.5
20:20 1018 30.06 847 25.01 -9 15.7 90 -10.4 13.3
20:25 1018 30.06 847 25.01 -9.1 15.6 90 -10.5 13.1
20:30 1018 30.06 848 25.04 -9 15.7 89 -10.5 13
20:35 1018 30.06 848 25.04 -9.3 15.2 90 -10.6 12.9
20:40 1018 30.06 848 25.04 -9.3 15.2 91 -10.6 12.9
20:45 1018 30.06 847 25.01 -9.3 15.3 90 -10.6 13
20:50 1018 30.06 847 25.01 -9.2 15.5 90 -10.5 13.1
20:55 1018 30.06 847 25.01 -9.2 15.4 90 -10.6 12.9
21:00 1018 30.06 848 25.04 -9.2 15.4 89 -10.7 12.8
21:05 1018 30.06 848 25.04 -9.4 15 90 -10.8 12.5
21:10 1018 30.06 848 25.04 -9.6 14.8 90 -10.9 12.5
21:15 1018 30.06 848 25.04 -9.7 14.6 91 -10.9 12.3
21:20 1018 30.06 848 25.04 -9.8 14.5 91 -11 12.2
21:25 1018 30.06 848 25.04 -9.9 14.2 91 -11.1 12.1
21:30 1018 30.06 847 25.01 -9.9 14.1 92 -11 12.1
21:35 1018 30.06 847 25.01 -9.9 14.2 92 -11 12.2
21:40 1018 30.06 847 25.01 -10 14.1 92 -11.1 12.1
21:45 1018 30.06 847 25.01 -9.9 14.3 92 -11 12.3
21:50 1018 30.06 847 25.01 -9.8 14.3 92 -10.9 12.4
21:55 1018 30.06 847 25.01 -9.8 14.3 92 -10.9 12.3
22:00 1018 30.06 847 25.01 -9.7 14.5 91 -11 12.3
22:05 1018 30.06 847 25.01 -10 14.1 91 -11.2 11.9
22:10 1018 30.06 847 25.01 -10.1 13.8 92 -11.1 12
22:15 1018 30.06 847 25.01 -10.1 13.9 92 -11.1 12
22:20 1018 30.06 847 25.01 -10.3 13.4 93 -11.3 11.7
22:25 1018 30.06 847 25.01 -10.3 13.5 93 -11.3 11.7
22:30 1018 30.06 847 25.01 -10.3 13.4 93 -11.2 11.8
22:35 1018 30.06 847 25.01 -10.3 13.5 94 -11.1 12
22:40 1018 30.06 847 25.01 -10.1 13.9 93 -11 12.1
22:45 1018 30.06 847 25.01 -10 14 93 -11 12.2
22:50 1018 30.06 847 25.01 -9.8 14.4 92 -10.8 12.5
22:55 1018 30.06 847 25.01 -9.7 14.5 92 -10.8 12.5
23:00 1018 30.06 847 25.01 -9.7 14.5 91 -10.9 12.4
23:05 1018 30.06 847 25.01 -9.6 14.7 91 -10.9 12.5
23:10 1018 30.06 847 25.01 -9.6 14.7 91 -10.8 12.5
23:15 1018 30.06 847 25.01 -9.7 14.6 91 -10.9 12.3
23:20 1018 30.06 847 25.01 -9.5 14.8 90 -10.9 12.3
23:25 1018 30.06 847 25.01 -9.4 15.1 89 -10.9 12.4
23:30 1018 30.06 847 25.01 -9.4 15.1 89 -10.9 12.4
23:35 1018 30.06 847 25.01 -9.3 15.2 90 -10.7 12.7
23:40 1018 30.06 847 25.01 -9.3 15.3 89 -10.7 12.7
23:45 1018 30.06 847 25.01 -9.2 15.4 89 -10.7 12.7
23:50 1018 30.06 847 25.01 -9.3 15.3 89 -10.8 12.5
23:55 1018 30.06 847 25.01 -9.3 15.4 89 -10.8 12.6
24:00 1018 30.06 847 25.01 -9.2 15.5 89 -10.7 12.8